Latest Weather Observations for Flinders Island Airport

IDT60801

Issued at 6:31 pm EST Wednesday 24 August 2016 (issued every 30 minutes, with the page automatically refreshed every 10 minutes)

About weather observations | Map of weather stations | Latest weather observations for TAS | Other Formats
Station Details ID: 099005 Name: FLINDERS ISLAND AIRPORT Lat: -40.09 Lon: 148.00 Height: 9.0 m
Data from the previous 72 hours. | See also: Recent months at Flinders Island Airport
Date/Time
EST
Temp
°C
App
Temp
°C
Dew
Point
°C
Rel
Hum
%
Delta-T
°C
Wind Press
QNH
hPa
Press
MSL
hPa
Rain since
9am
mm
Dir  Spd
km/h
Gust
km/h
Spd
kts
Gust
kts
24/06:30pm 9.9 4.4 5.7 75 1.9 W 24 32 13 17 1011.3 1011.4 0.0
24/06:00pm 10.2 4.7 5.8 74 2.0 W 24 30 13 16 1011.4 1011.5 0.0
24/05:30pm 10.4 4.9 5.8 73 2.1 W 24 30 13 16 1011.4 1011.5 0.0
24/05:00pm 10.7 4.8 5.9 72 2.2 W 26 32 14 17 1011.5 1011.6 0.0
24/04:30pm 10.8 4.9 5.8 71 2.3 W 26 32 14 17 1011.4 1011.5 0.0
24/04:00pm 11.2 5.0 6.1 71 2.4 WSW 28 33 15 18 1011.4 1011.5 0.0
24/03:30pm 11.4 5.6 6.3 71 2.4 WSW 26 32 14 17 1011.4 1011.5 0.0
24/03:00pm 11.4 6.3 6.1 70 2.5 WSW 22 28 12 15 1011.4 1011.5 0.0
24/02:30pm 11.9 7.0 6.8 71 2.4 WSW 22 26 12 14 1011.5 1011.6 0.0
24/02:00pm 11.5 6.1 6.4 71 2.4 WSW 24 30 13 16 1011.7 1011.8 0.0
24/01:30pm 11.3 5.4 6.0 70 2.5 WSW 26 32 14 17 1011.9 1012.0 0.0
24/01:00pm 12.2 6.6 7.1 71 2.5 WSW 26 30 14 16 1012.3 1012.4 0.0
24/12:30pm 11.1 5.6 5.8 70 2.5 WSW 24 30 13 16 1012.6 1012.7 0.0
24/12:00pm 11.6 5.8 6.1 69 2.6 WSW 26 30 14 16 1013.1 1013.2 0.0
24/11:30am 10.7 4.7 5.5 70 2.4 WSW 26 30 14 16 1013.7 1013.8 0.0
24/11:00am 11.1 5.5 5.6 69 2.5 WSW 24 30 13 16 1014.0 1014.1 0.0
24/10:30am 11.2 6.0 5.7 69 2.5 WSW 22 28 12 15 1014.2 1014.3 0.0
24/10:00am 11.3 5.8 6.0 70 2.5 WSW 24 32 13 17 1014.3 1014.4 0.0
24/09:30am 10.6 5.8 5.4 70 2.4 WSW 20 28 11 15 1014.5 1014.6 0.0
24/09:00am 10.4 5.2 5.4 71 2.3 WSW 22 30 12 16 1014.8 1014.9 0.0
24/08:30am 10.5 5.3 5.7 72 2.2 WSW 22 30 12 16 1015.1 1015.2 0.0
24/08:00am 9.5 4.6 5.3 75 1.9 WSW 20 26 11 14 1015.0 1015.1 0.0
24/07:30am 9.4 4.6 5.8 78 1.6 WSW 20 26 11 14 1015.0 1015.1 0.0
24/07:00am 8.2 3.8 5.0 80 1.4 W 17 19 9 10 1014.8 1014.9 0.0
24/06:30am 8.0 3.2 4.6 79 1.5 WSW 19 22 10 12 1014.8 1014.9 0.0
24/06:00am 8.8 4.1 5.0 77 1.7 WSW 19 24 10 13 1014.7 1014.8 0.0
24/05:30am 8.1 3.1 4.5 78 1.6 WSW 20 24 11 13 1014.6 1014.7 0.0
24/05:00am 8.2 3.8 4.6 78 1.6 WSW 17 20 9 11 1014.5 1014.6 0.0
24/04:30am 8.3 3.5 4.9 79 1.5 WSW 19 22 10 12 1014.4 1014.5 0.0
24/04:00am 8.6 3.6 4.8 77 1.7 WSW 20 24 11 13 1014.4 1014.5 0.0
24/03:30am 9.0 4.1 5.2 77 1.7 WSW 20 26 11 14 1014.4 1014.5 0.0
24/03:00am 8.9 4.0 4.9 76 1.8 WSW 20 26 11 14 1014.6 1014.7 0.0
24/02:30am 9.2 3.5 5.0 75 1.9 WSW 24 28 13 15 1015.0 1015.1 0.0
24/02:00am 9.4 3.7 5.0 74 2.0 SW 24 30 13 16 1015.0 1015.1 0.0
24/01:30am 9.7 4.5 5.3 74 2.0 SW 22 30 12 16 1015.0 1015.1 0.0
24/01:00am 9.6 3.5 5.0 73 2.1 SW 26 32 14 17 1014.9 1015.0 0.0
24/12:30am 9.7 4.4 5.1 73 2.1 SW 22 30 12 16 1015.1 1015.2 0.0
24/12:00am 10.1 4.1 5.5 73 2.1 SW 26 32 14 17 1015.3 1015.4 0.0
 
Date/Time
EST
Temp
°C
App
Temp
°C
Dew
Point
°C
Rel
Hum
%
Delta-T
°C
Wind Press
QNH
hPa
Press
MSL
hPa
Rain since
9am
mm
Dir  Spd
km/h
Gust
km/h
Spd
kts
Gust
kts
23/11:30pm 9.4 3.8 5.4 76 1.8 WSW 24 28 13 15 1015.4 1015.5 0.0
23/11:00pm 9.8 4.3 5.8 76 1.8 WSW 24 28 13 15 1015.6 1015.7 0.0
23/10:30pm 9.9 5.1 5.7 75 1.9 W 20 26 11 14 1015.9 1016.0 0.0
23/10:00pm 10.0 5.2 5.8 75 1.9 W 20 26 11 14 1016.1 1016.2 0.0
23/09:30pm 10.0 5.2 5.6 74 2.0 W 20 24 11 13 1016.2 1016.3 0.0
23/09:00pm 10.0 4.4 5.4 73 2.1 W 24 26 13 14 1016.3 1016.4 0.0
23/08:30pm 9.9 5.0 5.1 72 2.2 WSW 20 26 11 14 1016.2 1016.3 0.0
23/08:00pm 10.2 4.6 5.2 71 2.3 WSW 24 30 13 16 1016.0 1016.1 0.0
23/07:30pm 9.9 3.7 4.5 69 2.4 WSW 26 30 14 16 1016.0 1016.1 0.0
23/07:00pm 10.1 4.0 4.7 69 2.4 WSW 26 30 14 16 1015.8 1015.9 0.0
23/06:30pm 10.0 3.8 4.2 67 2.6 WSW 26 33 14 18 1015.7 1015.8 0.0
23/06:00pm 10.1 4.3 4.3 67 2.6 WSW 24 30 13 16 1015.6 1015.7 0.0
23/05:30pm 9.7 3.4 3.9 67 2.5 WSW 26 32 14 17 1015.3 1015.4 0.0
23/05:00pm 10.0 4.1 3.7 65 2.8 WSW 24 30 13 16 1015.2 1015.3 0.0
23/04:30pm 10.4 4.5 4.1 65 2.8 WSW 24 30 13 16 1014.9 1015.0 0.0
23/04:00pm 10.6 5.6 4.7 67 2.7 WSW 20 26 11 14 1014.6 1014.7 0.0
23/03:30pm 10.9 5.1 4.4 64 2.9 WSW 24 30 13 16 1014.5 1014.6 0.0
23/03:00pm 11.4 6.1 4.8 64 3.0 WSW 22 28 12 15 1014.3 1014.4 0.0
23/02:30pm 11.3 6.3 4.5 63 3.1 WSW 20 26 11 14 1014.2 1014.3 0.0
23/02:00pm 10.9 5.8 3.9 62 3.1 SW 20 26 11 14 1014.2 1014.3 0.0
23/01:30pm 11.3 5.1 4.3 62 3.1 WSW 26 32 14 17 1014.0 1014.1 0.0
23/01:00pm 11.5 5.3 4.5 62 3.2 WSW 26 35 14 19 1014.3 1014.4 0.0
23/12:30pm 11.4 6.0 4.6 63 3.1 WSW 22 30 12 16 1014.7 1014.8 0.0
23/12:00pm 11.6 5.9 5.0 64 3.0 WSW 24 30 13 16 1015.0 1015.1 0.0
23/11:30am 11.3 5.1 4.5 63 3.1 WSW 26 32 14 17 1015.4 1015.5 0.0
23/11:00am 10.8 4.2 4.3 64 2.9 WSW 28 35 15 19 1015.5 1015.6 0.0
23/10:30am 10.9 3.9 4.1 63 3.0 WSW 30 35 16 19 1015.5 1015.6 0.0
23/10:00am 10.9 4.0 4.4 64 2.9 WSW 30 35 16 19 1015.5 1015.6 0.0
23/09:30am 10.3 3.8 4.7 68 2.5 WSW 28 33 15 18 1015.5 1015.6 0.0
23/09:00am 10.6 4.1 4.7 67 2.7 WSW 28 33 15 18 1015.3 1015.4 0.0
23/08:30am 9.6 3.5 4.6 71 2.2 WSW 26 32 14 17 1015.3 1015.4 0.0
23/08:00am 9.8 4.2 5.2 73 2.1 WSW 24 32 13 17 1015.2 1015.3 0.0
23/07:30am 9.4 3.3 4.8 73 2.1 SW 26 33 14 18 1015.0 1015.1 0.0
23/07:00am 9.3 3.6 4.7 73 2.0 SW 24 30 13 16 1014.7 1014.8 0.0
23/06:30am 9.4 3.3 4.6 72 2.1 SW 26 32 14 17 1014.5 1014.6 0.0
23/06:00am 9.4 3.7 4.8 73 2.1 SW 24 33 13 18 1014.2 1014.3 0.0
23/05:30am 9.7 4.4 5.1 73 2.1 SW 22 30 12 16 1013.8 1013.9 0.0
23/05:00am 9.4 3.3 5.0 74 2.0 SW 26 32 14 17 1013.8 1013.9 0.0
23/04:30am 9.5 3.5 5.1 74 2.0 SW 26 32 14 17 1013.8 1013.9 0.0
23/04:00am 9.6 3.7 5.6 76 1.8 WSW 26 35 14 19 1013.8 1013.9 0.0
23/03:30am 9.5 3.2 5.5 76 1.8 WSW 28 33 15 18 1013.7 1013.8 0.0
23/03:00am 9.6 3.3 5.6 76 1.8 WSW 28 33 15 18 1013.8 1013.9 0.0
23/02:30am 9.5 2.8 5.7 77 1.7 WSW 30 33 16 18 1014.0 1014.1 0.0
23/02:00am 9.6 3.3 5.8 77 1.7 WSW 28 32 15 17 1014.2 1014.3 0.0
23/01:30am 9.6 3.7 5.6 76 1.8 WSW 26 32 14 17 1014.5 1014.6 0.0
23/01:00am 9.8 3.6 6.0 77 1.7 WSW 28 33 15 18 1014.4 1014.5 0.0
23/12:30am 9.9 3.7 6.1 77 1.8 WSW 28 33 15 18 1014.4 1014.5 0.0
23/12:00am 10.0 4.1 6.0 76 1.8 WSW 26 32 14 17 1014.5 1014.6 0.0
 
Date/Time
EST
Temp
°C
App
Temp
°C
Dew
Point
°C
Rel
Hum
%
Delta-T
°C
Wind Press
QNH
hPa
Press
MSL
hPa
Rain since
9am
mm
Dir  Spd
km/h
Gust
km/h
Spd
kts
Gust
kts
22/11:30pm 9.8 4.7 6.0 77 1.8 W 22 30 12 16 1014.4 1014.5 0.0
22/11:00pm 9.4 4.6 5.6 77 1.7 W 20 26 11 14 1014.4 1014.5 0.0
22/10:30pm 9.0 4.4 5.6 79 1.5 W 19 24 10 13 1014.5 1014.6 0.0
22/10:00pm 4.4 -0.6 1.1 79 1.3 W 17 19 9 10 1014.5 1014.6 0.0
22/09:30pm 8.0 3.9 4.2 77 1.7 W 15 19 8 10 1014.5 1014.6 0.0
22/09:00pm 8.2 4.1 4.2 76 1.7 W 15 19 8 10 1014.3 1014.4 0.0
22/08:30pm 8.1 3.9 3.9 75 1.8 W 15 20 8 11 1014.2 1014.3 0.0
22/08:00pm 9.2 4.4 4.6 73 2.0 WSW 19 24 10 13 1014.0 1014.1 0.0
22/07:30pm 9.8 4.5 5.0 72 2.2 WSW 22 28 12 15 1013.7 1013.8 0.0
22/07:00pm 10.3 5.7 5.7 73 2.1 W 19 26 10 14 1013.5 1013.6 0.0
22/06:30pm 10.2 5.6 5.8 74 2.0 WSW 19 20 10 11 1013.3 1013.4 0.0
22/06:00pm 10.2 5.6 5.6 73 2.1 WSW 19 20 10 11 1013.0 1013.1 0.0
22/05:30pm 10.5 6.3 5.7 72 2.2 WSW 17 20 9 11 1012.9 1013.0 0.0
22/05:00pm 10.6 6.4 5.8 72 2.2 WSW 17 19 9 10 1012.8 1012.9 0.0
22/04:30pm 11.0 6.9 6.0 71 2.3 WSW 17 22 9 12 1012.6 1012.7 0.0
22/04:00pm 11.1 6.9 5.8 70 2.5 WSW 17 20 9 11 1012.5 1012.6 0.0
22/03:30pm 11.2 7.4 5.7 69 2.5 WSW 15 19 8 10 1012.5 1012.6 0.0
22/03:00pm 11.3 7.5 5.6 68 2.6 WSW 15 19 8 10 1012.5 1012.6 0.0
22/02:30pm 11.6 7.5 6.3 70 2.5 WSW 17 20 9 11 1012.4 1012.5 0.0
22/02:00pm 12.0 8.4 6.9 71 2.4 WSW 15 19 8 10 1012.4 1012.5 0.0
22/01:30pm 11.5 8.0 7.4 76 2.0 WNW 15 20 8 11 1012.4 1012.5 0.0
22/01:00pm 11.3 7.4 7.2 76 2.0 WNW 17 20 9 11 1012.5 1012.6 0.0
22/12:30pm 11.6 8.6 7.5 76 2.0 WNW 13 17 7 9 1012.8 1012.9 0.0
22/12:00pm 11.0 6.7 6.9 76 1.9 WNW 19 26 10 14 1013.2 1013.3 0.0
22/11:30am 11.2 6.3 6.7 74 2.1 W 22 28 12 15 1013.5 1013.6 0.0
22/11:00am 11.1 6.6 6.8 75 2.0 WSW 20 26 11 14 1013.5 1013.6 0.0
22/10:30am 12.2 8.3 6.9 70 2.5 NW 17 24 9 13 1013.4 1013.5 0.0
22/10:00am 11.6 7.5 6.3 70 2.5 NW 17 20 9 11 1013.5 1013.6 0.0
22/09:30am 11.1 7.4 6.5 73 2.2 WNW 15 19 8 10 1013.5 1013.6 0.0
22/09:00am 10.6 6.0 5.8 72 2.2 W 19 26 10 14 1013.5 1013.6 0.0
22/08:30am 10.8 6.3 6.0 72 2.2 W 19 24 10 13 1013.4 1013.5 0.0
22/08:00am 10.6 6.6 4.9 68 2.6 W 15 19 8 10 1013.2 1013.3 0.0
22/07:30am 10.3 6.3 4.7 68 2.5 W 15 19 8 10 1012.9 1013.0 0.0
22/07:00am 10.2 5.4 4.6 68 2.5 WSW 19 22 10 12 1012.6 1012.7 0.0
22/06:30am 10.2 5.8 4.6 68 2.5 W 17 20 9 11 1012.3 1012.4 0.0
22/06:00am 10.2 6.2 4.8 69 2.4 W 15 20 8 11 1012.3 1012.4 0.0
22/05:30am 10.0 5.2 4.8 70 2.3 W 19 22 10 12 1012.3 1012.4 0.0
22/05:00am 10.4 5.1 5.2 70 2.4 WSW 22 26 12 14 1012.1 1012.2 0.0
22/04:30am 10.6 5.9 5.2 69 2.5 W 19 26 10 14 1012.1 1012.2 0.0
22/04:00am 10.5 5.8 5.3 70 2.4 W 19 26 10 14 1011.9 1012.0 0.0
22/03:30am 10.1 5.2 5.1 71 2.3 W 20 26 11 14 1011.9 1012.0 0.0
22/03:00am 10.3 5.0 4.9 69 2.4 WSW 22 28 12 15 1011.9 1012.0 0.0
22/02:30am 10.3 4.3 5.5 72 2.2 WSW 26 30 14 16 1012.0 1012.1 0.0
22/02:00am 10.7 4.8 5.7 71 2.3 WSW 26 32 14 17 1012.2 1012.3 0.0
22/01:30am 10.8 5.2 5.6 70 2.4 W 24 30 13 16 1012.3 1012.4 0.0
22/01:00am 10.7 5.2 5.7 71 2.3 W 24 30 13 16 1012.3 1012.4 0.0
22/12:30am 10.9 5.4 5.7 70 2.4 W 24 30 13 16 1012.4 1012.5 0.0
22/12:00am 10.9 5.0 5.9 71 2.3 W 26 33 14 18 1012.4 1012.5 0.0
 
Date/Time
EST
Temp
°C
App
Temp
°C
Dew
Point
°C
Rel
Hum
%
Delta-T
°C
Wind Press
QNH
hPa
Press
MSL
hPa
Rain since
9am
mm
Dir  Spd
km/h
Gust
km/h
Spd
kts
Gust
kts
21/11:30pm 10.8 6.1 6.0 72 2.2 W 20 26 11 14 1012.2 1012.3 0.0
21/11:00pm 10.8 6.2 5.8 71 2.3 W 19 28 10 15 1012.2 1012.3 0.0
21/10:30pm 10.8 5.6 5.6 70 2.4 W 22 28 12 15 1012.3 1012.4 0.0
21/10:00pm 10.8 6.1 6.0 72 2.2 W 20 28 11 15 1012.4 1012.5 0.0
21/09:30pm 10.9 5.4 6.1 72 2.2 W 24 30 13 16 1012.3 1012.4 0.0
21/09:00pm 10.9 6.2 6.1 72 2.2 W 20 28 11 15 1012.1 1012.2 0.0
21/08:30pm 10.8 5.2 5.3 69 2.5 WNW 24 32 13 17 1012.0 1012.1 0.0
21/08:00pm 10.7 5.3 4.6 66 2.7 WNW 22 33 12 18 1011.8 1011.9 0.0
21/07:30pm 10.6 4.0 4.3 65 2.8 W 28 35 15 19 1011.6 1011.7 0.0
21/07:00pm 10.4 3.8 4.3 66 2.7 W 28 35 15 19 1011.5 1011.6 0.0

Other Formats:

Comma delimited format used in spreadsheet applications
http://www.bom.gov.au/fwo/IDT60801/IDT60801.94980.axf

JavaScript Object Notation format (JSON) in row-major order
http://www.bom.gov.au/fwo/IDT60801/IDT60801.94980.json